Time;durP1;ratioP1;P1;durP2;ratioP2;P2;SDS_P1;SDS_P2;PMS_P1;PMS_P2;Temp;Humidity;BMP_temperature;BMP_pressure;BME280_temperature;BME280_humidity;BME280_pressure;Samples;Min_cycle;Max_cycle;Signal;HPM_P1;HPM_P2
2022/05/04 00:00:23;;;;;;;30.55;27.13;;;7.20;99.90;;;;;;5015413;28;20107;-72
2022/05/04 00:02:51;;;;;;;31.63;27.50;;;7.10;99.90;;;;;;5013597;28;20063;-72
2022/05/04 00:05:18;;;;;;;31.75;27.38;;;7.00;99.90;;;;;;5016001;28;20049;-72
2022/05/04 00:07:46;;;;;;;33.10;27.83;;;7.00;99.90;;;;;;5016360;28;20049;-72
2022/05/04 00:10:13;;;;;;;34.05;27.45;;;6.90;99.90;;;;;;5013282;28;20049;-72
2022/05/04 00:12:40;;;;;;;29.50;26.20;;;6.90;99.90;;;;;;5008228;28;20057;-72
2022/05/04 00:15:08;;;;;;;31.88;27.20;;;6.90;99.90;;;;;;4995050;28;20041;-73
2022/05/04 00:17:36;;;;;;;32.20;27.30;;;6.90;99.90;;;;;;5016439;28;20051;-72
2022/05/04 00:20:04;;;;;;;31.65;27.02;;;6.90;99.90;;;;;;5033604;28;20172;-72
2022/05/04 00:22:31;;;;;;;31.60;26.73;;;6.90;99.90;;;;;;4997909;28;20455;-72
2022/05/04 00:24:58;;;;;;;30.45;26.05;;;6.80;99.90;;;;;;5012929;28;20086;-72
2022/05/04 00:27:25;;;;;;;35.72;28.45;;;6.70;99.90;;;;;;5015888;28;20134;-72
2022/05/04 00:29:52;;;;;;;33.22;27.75;;;6.70;99.90;;;;;;5032963;28;20037;-72
2022/05/04 00:32:21;;;;;;;28.95;26.05;;;6.80;99.90;;;;;;5032111;28;20536;-72
2022/05/04 00:34:48;;;;;;;30.63;27.13;;;6.70;99.90;;;;;;4998962;28;20080;-72
2022/05/04 00:37:16;;;;;;;28.98;25.88;;;6.60;99.90;;;;;;5016182;28;20052;-72
2022/05/04 00:39:43;;;;;;;31.48;27.02;;;6.50;99.90;;;;;;5008085;28;20057;-72
2022/05/04 00:42:11;;;;;;;30.98;25.67;;;6.50;99.90;;;;;;5027926;28;20055;-72
2022/05/04 00:44:39;;;;;;;34.15;27.73;;;6.50;99.90;;;;;;5041755;28;20055;-72
2022/05/04 00:47:07;;;;;;;29.30;26.05;;;6.60;99.90;;;;;;4979212;28;20052;-72
2022/05/04 00:49:35;;;;;;;29.25;26.13;;;6.60;99.90;;;;;;4979741;28;20430;-72
2022/05/04 00:52:04;;;;;;;30.98;26.08;;;6.40;99.90;;;;;;4995522;28;20105;-72
2022/05/04 00:54:33;;;;;;;28.80;25.70;;;6.40;99.90;;;;;;4987193;28;20056;-72
2022/05/04 00:57:02;;;;;;;28.75;25.45;;;6.30;99.90;;;;;;5031906;28;20286;-72
2022/05/04 00:59:32;;;;;;;32.63;26.90;;;6.30;99.90;;;;;;5008582;28;20049;-72
2022/05/04 01:01:59;;;;;;;31.10;26.08;;;6.20;99.90;;;;;;5014444;28;20049;-71
2022/05/04 01:04:27;;;;;;;29.33;25.65;;;6.30;99.90;;;;;;5014930;28;20049;-71
2022/05/04 01:06:56;;;;;;;31.20;25.20;;;6.30;99.90;;;;;;5003902;28;20210;-72
2022/05/04 01:09:22;;;;;;;29.75;25.33;;;6.30;99.90;;;;;;4999252;28;20518;-72
2022/05/04 01:11:49;;;;;;;33.65;24.48;;;6.20;99.90;;;;;;5002469;28;20040;-72
2022/05/04 01:14:18;;;;;;;30.00;25.15;;;6.20;99.90;;;;;;5021003;28;20045;-72
2022/05/04 01:16:50;;;;;;;33.60;26.13;;;6.20;99.90;;;;;;5018430;28;20045;-72
2022/05/04 01:19:18;;;;;;;33.50;25.85;;;6.20;99.90;;;;;;5020327;28;20152;-72
2022/05/04 01:21:49;;;;;;;29.13;26.02;;;6.10;99.90;;;;;;5034074;28;20045;-72
2022/05/04 01:24:16;;;;;;;28.23;24.88;;;6.10;99.90;;;;;;5029185;28;20049;-72
2022/05/04 01:26:44;;;;;;;33.72;24.85;;;6.00;99.90;;;;;;5018619;28;20064;-72
2022/05/04 01:29:11;;;;;;;27.85;24.88;;;6.00;99.90;;;;;;5003494;28;20120;-72
2022/05/04 01:31:39;;;;;;;34.95;24.58;;;6.00;99.90;;;;;;5000927;28;20049;-72
2022/05/04 01:34:06;;;;;;;29.25;24.10;;;6.00;99.90;;;;;;5022709;28;20060;-71
2022/05/04 01:36:33;;;;;;;29.83;24.13;;;6.10;99.90;;;;;;4997554;28;20116;-72
2022/05/04 01:39:00;;;;;;;29.45;25.40;;;6.10;99.90;;;;;;4988206;28;20044;-72
2022/05/04 01:44:14;;;;;;;27.67;22.52;;;6.20;99.90;;;;;;5027411;28;20268;-71
2022/05/04 01:46:41;;;;;;;27.88;24.23;;;6.00;99.90;;;;;;5020009;28;20053;-72
2022/05/04 01:49:08;;;;;;;34.83;23.67;;;6.00;99.90;;;;;;5016229;28;20045;-72
2022/05/04 01:51:35;;;;;;;29.67;23.75;;;5.90;99.90;;;;;;5017206;28;20055;-72
2022/05/04 01:54:03;;;;;;;27.35;24.38;;;5.90;99.90;;;;;;5018850;28;20076;-72
2022/05/04 01:56:30;;;;;;;27.88;24.63;;;5.90;99.90;;;;;;5001879;28;20049;-72
2022/05/04 01:58:57;;;;;;;26.23;23.52;;;5.90;99.90;;;;;;5049033;23;20147;-72
2022/05/04 02:01:24;;;;;;;27.95;25.30;;;5.80;99.90;;;;;;5042023;28;20460;-72
2022/05/04 02:03:51;;;;;;;26.52;24.13;;;5.90;99.90;;;;;;5041636;28;20491;-72
2022/05/04 02:06:18;;;;;;;25.70;23.17;;;5.90;99.90;;;;;;5025616;28;20554;-72
2022/05/04 02:08:46;;;;;;;25.13;22.52;;;5.90;99.90;;;;;;5043585;28;20099;-72
2022/05/04 02:11:12;;;;;;;28.73;24.77;;;5.90;99.90;;;;;;5031500;28;20065;-72
2022/05/04 02:13:39;;;;;;;31.30;24.65;;;5.80;99.90;;;;;;5040528;28;20557;-72
2022/05/04 02:16:06;;;;;;;27.58;24.05;;;5.80;99.90;;;;;;5031136;28;20061;-72
2022/05/04 02:18:33;;;;;;;29.80;24.00;;;5.80;99.90;;;;;;5044076;28;20049;-72
2022/05/04 02:21:00;;;;;;;29.95;24.20;;;5.80;99.90;;;;;;5043484;28;20068;-72
2022/05/04 02:23:27;;;;;;;26.20;23.45;;;5.80;99.90;;;;;;5043722;28;20075;-72
2022/05/04 02:25:54;;;;;;;28.77;22.58;;;5.70;99.90;;;;;;5023760;28;20080;-72
2022/05/04 02:28:21;;;;;;;30.83;22.73;;;5.70;99.90;;;;;;5025806;28;20515;-71
2022/05/04 02:30:48;;;;;;;26.70;23.05;;;5.80;99.90;;;;;;5042839;28;20507;-72
2022/05/04 02:33:15;;;;;;;27.23;21.60;;;5.80;99.90;;;;;;5043475;28;20550;-72
2022/05/04 02:38:33;;;;;;;28.90;23.40;;;5.70;99.90;;;;;;5025212;28;20130;-72
2022/05/04 02:41:00;;;;;;;31.42;22.55;;;5.70;99.90;;;;;;5049953;28;20045;-72
2022/05/04 02:43:28;;;;;;;32.03;24.02;;;5.60;99.90;;;;;;5045874;28;20431;-72
2022/05/04 02:46:10;;;;;;;29.75;23.20;;;5.60;99.90;;;;;;5048631;28;20601;-72
2022/05/04 02:48:38;;;;;;;26.08;22.52;;;5.70;99.90;;;;;;5029174;28;20159;-72
2022/05/04 02:51:05;;;;;;;33.58;23.10;;;5.70;99.90;;;;;;5061685;28;20060;-72
2022/05/04 02:53:31;;;;;;;26.75;23.00;;;5.80;99.90;;;;;;5060651;28;20052;-71
2022/05/04 02:55:58;;;;;;;29.55;24.05;;;5.80;99.90;;;;;;5061513;28;20041;-72
2022/05/04 02:58:25;;;;;;;32.92;23.70;;;5.70;99.90;;;;;;5045137;28;20118;-71
2022/05/04 03:00:51;;;;;;;27.77;21.95;;;5.60;99.90;;;;;;5049118;28;20041;-72
2022/05/04 03:03:18;;;;;;;27.85;22.67;;;5.50;99.90;;;;;;5038946;28;20049;-72
2022/05/04 03:05:45;;;;;;;34.67;23.02;;;5.50;99.90;;;;;;5041609;28;20529;-72
2022/05/04 03:08:12;;;;;;;30.17;22.42;;;5.60;99.90;;;;;;5024512;28;20049;-72
2022/05/04 03:13:44;;;;;;;28.95;22.83;;;5.50;99.90;;;;;;4994802;28;20108;-71
2022/05/04 03:16:11;;;;;;;27.73;23.02;;;5.40;99.90;;;;;;5007865;28;20145;-71
2022/05/04 03:18:38;;;;;;;33.08;22.88;;;5.30;99.90;;;;;;5019230;28;20095;-72
2022/05/04 03:21:04;;;;;;;29.55;23.40;;;5.30;99.90;;;;;;5040979;28;20183;-72
2022/05/04 03:23:31;;;;;;;29.25;23.70;;;5.40;99.90;;;;;;5041588;28;20547;-72
2022/05/04 03:25:58;;;;;;;28.42;22.42;;;5.30;99.90;;;;;;5038307;28;20127;-72
2022/05/04 03:28:25;;;;;;;30.00;23.15;;;5.30;99.90;;;;;;5023012;28;20076;-72
2022/05/04 03:30:52;;;;;;;26.33;23.67;;;5.20;99.90;;;;;;5039257;28;20052;-72
2022/05/04 03:33:19;;;;;;;26.38;23.50;;;5.20;99.90;;;;;;5039682;28;20059;-72
2022/05/04 03:35:46;;;;;;;28.48;23.50;;;5.30;99.90;;;;;;5028332;28;20049;-72
2022/05/04 03:38:12;;;;;;;32.53;24.98;;;5.20;99.90;;;;;;5009489;28;20080;-72
2022/05/04 03:40:39;;;;;;;29.73;23.25;;;5.10;99.90;;;;;;5030662;28;20055;-72
2022/05/04 03:43:06;;;;;;;34.05;24.98;;;5.20;99.90;;;;;;5049077;28;20068;-72
2022/05/04 03:45:32;;;;;;;44.17;27.48;;;5.30;99.90;;;;;;5033584;28;20072;-72
2022/05/04 03:47:59;;;;;;;40.90;26.83;;;5.30;99.90;;;;;;5041401;28;20134;-72
2022/05/04 03:50:26;;;;;;;34.97;24.50;;;5.40;99.90;;;;;;5022195;28;20110;-72
2022/05/04 03:52:53;;;;;;;34.25;23.75;;;5.50;99.90;;;;;;5022908;28;20072;-72
2022/05/04 03:55:19;;;;;;;33.53;24.42;;;5.50;99.90;;;;;;5017674;28;20052;-71
2022/05/04 03:57:46;;;;;;;36.22;23.60;;;5.50;99.90;;;;;;5022913;28;20143;-72
2022/05/04 04:00:13;;;;;;;34.58;24.38;;;5.40;99.90;;;;;;5023051;28;20049;-72
2022/05/04 04:02:40;;;;;;;30.88;24.40;;;5.60;99.90;;;;;;5041002;28;20610;-72
2022/05/04 04:05:08;;;;;;;35.28;24.42;;;5.70;99.90;;;;;;5021832;28;20135;-71
2022/05/04 04:07:35;;;;;;;36.60;23.58;;;5.70;99.90;;;;;;5022805;28;20190;-72
2022/05/04 04:10:01;;;;;;;39.92;24.65;;;5.70;99.90;;;;;;5029886;28;20610;-71
2022/05/04 04:12:28;;;;;;;35.97;24.65;;;5.70;99.90;;;;;;5029202;28;20097;-72
2022/05/04 04:14:55;;;;;;;27.50;23.38;;;5.80;99.90;;;;;;5053514;28;20122;-72
2022/05/04 04:17:22;;;;;;;29.48;23.25;;;5.70;99.90;;;;;;5022526;28;20137;-72
2022/05/04 04:21:50;;;;;;;26.35;23.42;;;5.60;99.90;;;;;;5043908;28;20118;-74
2022/05/04 04:22:35;;;;;;;26.40;23.75;;;5.40;99.90;;;;;;5038813;28;20049;-74
2022/05/04 04:25:02;;;;;;;30.92;23.38;;;5.40;99.90;;;;;;5039595;28;20033;-74
2022/05/04 04:27:31;;;;;;;36.40;25.25;;;5.40;99.90;;;;;;5022823;28;20045;-72
2022/05/04 04:29:58;;;;;;;27.77;23.52;;;5.40;99.90;;;;;;5022773;28;20084;-72
2022/05/04 04:32:25;;;;;;;32.65;25.70;;;5.40;99.90;;;;;;5022123;28;20091;-71
2022/05/04 04:34:52;;;;;;;36.60;26.25;;;5.40;99.90;;;;;;5038254;28;20422;-72
2022/05/04 04:37:18;;;;;;;30.55;26.27;;;5.40;99.90;;;;;;5018929;28;20092;-71
2022/05/04 04:39:45;;;;;;;34.53;26.40;;;5.40;99.90;;;;;;5036784;28;20515;-72
2022/05/04 04:42:13;;;;;;;34.78;26.13;;;5.40;99.90;;;;;;5032546;28;20145;-72
2022/05/04 04:44:39;;;;;;;29.13;25.52;;;5.50;99.90;;;;;;5040369;28;20130;-72
2022/05/04 04:47:06;;;;;;;34.35;25.67;;;5.60;99.90;;;;;;5041349;28;20065;-72
2022/05/04 04:49:33;;;;;;;32.67;25.50;;;5.60;99.90;;;;;;5040516;28;20045;-72
2022/05/04 04:52:00;;;;;;;29.45;25.55;;;5.60;99.90;;;;;;5039663;28;20044;-72
2022/05/04 04:54:26;;;;;;;35.47;26.45;;;5.50;99.90;;;;;;5023001;28;20049;-72
2022/05/04 04:56:53;;;;;;;30.10;26.40;;;5.50;99.90;;;;;;5003503;28;20671;-72
2022/05/04 04:59:20;;;;;;;33.95;25.13;;;5.50;99.90;;;;;;5036834;28;20084;-72
2022/05/04 05:01:46;;;;;;;33.63;25.25;;;5.60;99.90;;;;;;5003448;28;20037;-72
2022/05/04 05:04:13;;;;;;;29.45;24.70;;;5.70;99.90;;;;;;5021906;28;20046;-72
2022/05/04 05:06:40;;;;;;;33.05;24.67;;;5.70;99.90;;;;;;5002944;28;20045;-72
2022/05/04 05:09:06;;;;;;;31.17;24.08;;;5.80;99.90;;;;;;5029195;28;20350;-72
2022/05/04 05:11:33;;;;;;;27.38;24.42;;;5.90;99.90;;;;;;5049015;28;20530;-72
2022/05/04 05:16:45;;;;;;;30.70;23.55;;;6.00;99.90;;;;;;5041684;28;20060;-72
2022/05/04 05:19:12;;;;;;;28.17;24.55;;;6.10;99.90;;;;;;5041308;28;20060;-72
2022/05/04 05:21:38;;;;;;;29.17;25.45;;;6.20;99.90;;;;;;5058627;28;20198;-72
2022/05/04 05:24:06;;;;;;;29.83;25.15;;;6.30;99.90;;;;;;5031644;28;20040;-72
2022/05/04 05:26:33;;;;;;;26.52;22.83;;;6.40;99.90;;;;;;5022620;28;20044;-72
2022/05/04 05:29:00;;;;;;;27.83;22.13;;;6.50;99.90;;;;;;5040370;28;20420;-72
2022/05/04 05:31:26;;;;;;;30.00;24.95;;;6.70;99.90;;;;;;5038889;28;20049;-72
2022/05/04 05:33:53;;;;;;;27.63;23.95;;;6.80;99.90;;;;;;5022146;28;20433;-72
2022/05/04 05:36:20;;;;;;;27.58;24.70;;;7.00;99.90;;;;;;5022029;28;20148;-72
2022/05/04 05:38:47;;;;;;;29.92;24.60;;;7.20;99.90;;;;;;5039838;28;20057;-72
2022/05/04 05:41:14;;;;;;;27.33;24.42;;;7.40;99.90;;;;;;5030856;28;20111;-73
2022/05/04 05:43:40;;;;;;;26.55;23.98;;;7.60;99.90;;;;;;5049684;28;20143;-72
2022/05/04 05:46:07;;;;;;;29.23;23.38;;;7.70;99.90;;;;;;5041380;28;20072;-72
2022/05/04 05:48:34;;;;;;;27.70;24.75;;;7.90;99.90;;;;;;5020861;28;20618;-72
2022/05/04 05:51:05;;;;;;;27.73;24.88;;;8.10;99.90;;;;;;5037492;28;20110;-72
2022/05/04 05:53:32;;;;;;;27.65;24.95;;;8.30;99.90;;;;;;5043693;28;20053;-72
2022/05/04 05:55:59;;;;;;;29.27;26.30;;;8.60;99.90;;;;;;5024582;28;20596;-72
2022/05/04 05:58:26;;;;;;;29.42;26.70;;;8.70;99.90;;;;;;5033409;28;20045;-72
2022/05/04 06:00:52;;;;;;;28.80;26.30;;;8.90;99.90;;;;;;5027767;28;20143;-72
2022/05/04 06:03:19;;;;;;;28.38;25.80;;;9.00;99.90;;;;;;5031839;28;20077;-72
2022/05/04 06:05:46;;;;;;;27.30;24.95;;;9.10;99.90;;;;;;5033598;28;20141;-72
2022/05/04 06:08:12;;;;;;;29.63;26.85;;;9.30;99.90;;;;;;5023519;28;20060;-72
2022/05/04 06:10:39;;;;;;;29.30;26.70;;;9.40;99.90;;;;;;5032491;28;20053;-72
2022/05/04 06:13:06;;;;;;;30.15;27.30;;;9.50;99.90;;;;;;5050809;28;20123;-72
2022/05/04 06:15:33;;;;;;;30.38;27.55;;;9.60;99.90;;;;;;5048526;28;20128;-71
2022/05/04 06:18:01;;;;;;;30.35;27.23;;;9.70;99.90;;;;;;5050526;28;20041;-71
2022/05/04 06:20:28;;;;;;;31.83;28.90;;;10.00;99.90;;;;;;5039869;28;20637;-72
2022/05/04 06:22:54;;;;;;;31.15;28.02;;;9.90;99.90;;;;;;5021966;28;20139;-72
2022/05/04 06:25:21;;;;;;;29.80;27.15;;;10.30;99.90;;;;;;5023174;28;20075;-72
2022/05/04 06:27:48;;;;;;;30.48;27.75;;;10.60;99.90;;;;;;5042923;28;20584;-72
2022/05/04 06:35:46;;;;;;;29.73;26.83;;;11.10;99.90;;;;;;5024702;28;20073;-72
2022/05/04 06:38:12;;;;;;;30.80;28.05;;;11.60;99.90;;;;;;5042724;28;20152;-72
2022/05/04 06:40:39;;;;;;;30.67;27.52;;;11.30;99.90;;;;;;5050383;28;20055;-72
2022/05/04 06:43:06;;;;;;;31.20;28.50;;;11.40;99.90;;;;;;5034542;28;20094;-72
2022/05/04 06:45:33;;;;;;;32.90;29.85;;;11.70;99.90;;;;;;5026885;28;20159;-72
2022/05/04 06:47:59;;;;;;;32.75;29.65;;;11.80;99.90;;;;;;5043292;28;20151;-72
2022/05/04 06:50:26;;;;;;;32.08;29.30;;;11.80;99.90;;;;;;5040803;28;20653;-71
2022/05/04 06:52:52;;;;;;;31.63;28.83;;;11.70;99.90;;;;;;5042380;28;20103;-72
2022/05/04 06:55:20;;;;;;;32.78;29.60;;;11.60;99.90;;;;;;5040866;28;20057;-72
2022/05/04 06:57:46;;;;;;;31.50;28.80;;;11.80;99.90;;;;;;5024966;28;20080;-72
2022/05/04 07:00:13;;;;;;;32.63;29.42;;;12.10;99.90;;;;;;5037585;28;20080;-73
2022/05/04 07:02:40;;;;;;;33.70;30.63;;;12.10;99.90;;;;;;5023232;28;20041;-74
2022/05/04 07:05:07;;;;;;;33.20;30.38;;;12.70;99.90;;;;;;5039288;28;20546;-72
2022/05/04 07:07:34;;;;;;;32.47;29.88;;;13.10;99.90;;;;;;5041953;28;20040;-74
2022/05/04 07:10:01;;;;;;;32.60;29.98;;;13.60;99.90;;;;;;5050667;28;20098;-74
2022/05/04 07:12:28;;;;;;;31.55;28.77;;;13.80;99.90;;;;;;5046732;28;20040;-72
2022/05/04 07:14:56;;;;;;;33.33;30.33;;;13.60;99.90;;;;;;5048876;28;20044;-75
2022/05/04 07:17:24;;;;;;;33.45;30.33;;;13.00;99.90;;;;;;5041802;28;20163;-76
2022/05/04 07:19:51;;;;;;;33.72;30.85;;;12.70;99.90;;;;;;5022918;28;20152;-75
2022/05/04 07:22:21;;;;;;;35.00;31.65;;;13.30;99.90;;;;;;5041571;28;20060;-75
2022/05/04 07:24:48;;;;;;;32.47;29.77;;;13.50;99.90;;;;;;5022168;28;20651;-76
2022/05/04 07:27:14;;;;;;;32.58;29.75;;;13.90;99.90;;;;;;5039937;28;20132;-76
2022/05/04 07:29:44;;;;;;;32.72;29.90;;;14.40;99.90;;;;;;5041217;28;20098;-75
2022/05/04 07:32:11;;;;;;;33.25;29.90;;;14.70;99.90;;;;;;5022867;28;20148;-76
2022/05/04 07:34:38;;;;;;;33.42;30.55;;;14.30;99.90;;;;;;5042753;28;20503;-75
2022/05/04 07:37:05;;;;;;;33.95;30.85;;;14.50;99.90;;;;;;5040568;28;20049;-76
2022/05/04 07:42:25;;;;;;;31.88;29.50;;;15.10;99.90;;;;;;5032658;28;20049;-76
2022/05/04 07:45:03;;;;;;;33.10;30.25;;;15.30;99.90;;;;;;5014078;28;20835;-75
2022/05/04 07:47:32;;;;;;;33.03;30.23;;;15.10;99.90;;;;;;5020276;28;20084;-75
2022/05/04 07:49:59;;;;;;;33.15;30.52;;;15.10;99.90;;;;;;5042755;28;20049;-75
2022/05/04 07:52:27;;;;;;;33.08;30.05;;;14.90;99.90;;;;;;5041263;28;20506;-75
2022/05/04 07:54:54;;;;;;;32.97;29.83;;;14.60;99.90;;;;;;5041362;28;20065;-74
2022/05/04 07:57:21;;;;;;;32.97;30.38;;;14.20;99.90;;;;;;5042256;28;20085;-75
2022/05/04 08:05:23;;;;;;;35.15;32.40;;;13.70;99.90;;;;;;5036055;28;20048;-74
2022/05/04 08:07:49;;;;;;;33.95;31.48;;;13.60;99.90;;;;;;5023519;28;20061;-76
2022/05/04 08:10:17;;;;;;;34.15;31.30;;;13.70;99.90;;;;;;5012729;28;20041;-76
2022/05/04 08:12:43;;;;;;;33.45;30.88;;;14.40;99.90;;;;;;5020386;28;20484;-76
2022/05/04 08:15:11;;;;;;;34.83;32.00;;;14.10;99.90;;;;;;5020475;28;20337;-76
2022/05/04 08:17:38;;;;;;;33.42;30.90;;;14.00;99.90;;;;;;5009690;28;20080;-76
2022/05/04 08:20:05;;;;;;;33.60;30.85;;;14.30;99.90;;;;;;5000162;28;20053;-75
2022/05/04 08:22:32;;;;;;;33.75;31.02;;;14.40;99.90;;;;;;4983186;28;20566;-76
2022/05/04 08:24:59;;;;;;;34.10;31.05;;;15.00;99.90;;;;;;5016126;28;20081;-75
2022/05/04 08:27:26;;;;;;;34.35;31.83;;;14.90;99.90;;;;;;5002824;28;20069;-75
2022/05/04 08:29:53;;;;;;;35.25;32.35;;;14.70;99.90;;;;;;5002400;28;20086;-75
2022/05/04 08:32:20;;;;;;;35.40;32.47;;;14.30;99.90;;;;;;5002624;28;20045;-75
2022/05/04 08:34:47;;;;;;;35.63;32.78;;;14.60;99.90;;;;;;4986597;28;20147;-75
2022/05/04 08:37:14;;;;;;;33.83;31.42;;;15.20;99.90;;;;;;5002013;28;20526;-76
2022/05/04 08:39:40;;;;;;;34.05;31.33;;;15.70;99.90;;;;;;5014481;28;20521;-76
2022/05/04 08:42:08;;;;;;;34.25;31.50;;;15.90;99.90;;;;;;5015947;28;20135;-76
2022/05/04 08:44:36;;;;;;;35.13;32.15;;;16.30;99.90;;;;;;5011380;28;20073;-75
2022/05/04 08:47:05;;;;;;;33.60;30.98;;;16.30;99.90;;;;;;4976784;28;20225;-75
2022/05/04 08:49:33;;;;;;;33.78;31.17;;;16.20;99.90;;;;;;4999083;28;20073;-75
2022/05/04 08:52:00;;;;;;;34.28;31.63;;;16.20;99.90;;;;;;5000460;28;20097;-75
2022/05/04 08:54:27;;;;;;;34.08;31.35;;;16.70;99.90;;;;;;5000485;28;20041;-76
2022/05/04 08:56:53;;;;;;;34.83;32.13;;;16.40;99.90;;;;;;5004234;28;20119;-76
2022/05/04 08:59:20;;;;;;;33.58;30.80;;;16.80;99.90;;;;;;5002808;28;20065;-76
2022/05/04 09:01:47;;;;;;;33.95;31.42;;;17.10;99.90;;;;;;5019996;28;20136;-76
2022/05/04 09:04:14;;;;;;;34.00;31.23;;;17.50;99.90;;;;;;5020033;28;20045;-76
2022/05/04 09:06:43;;;;;;;33.65;31.05;;;17.80;99.90;;;;;;5017936;28;20139;-76
2022/05/04 09:09:13;;;;;;;33.05;30.52;;;17.90;99.90;;;;;;5017277;28;20057;-76
2022/05/04 09:11:45;;;;;;;36.35;33.00;;;17.90;99.90;;;;;;4993896;28;20045;-76
2022/05/04 09:14:18;;;;;;;34.30;31.60;;;17.80;99.90;;;;;;5028906;28;20377;-76
2022/05/04 09:16:44;;;;;;;33.25;30.83;;;17.70;99.90;;;;;;5008849;28;20049;-76
2022/05/04 09:19:13;;;;;;;33.28;30.52;;;18.00;99.90;;;;;;5016356;28;20187;-75
2022/05/04 09:21:42;;;;;;;33.38;30.58;;;18.50;99.90;;;;;;5019325;28;20501;-76
2022/05/04 09:24:09;;;;;;;32.50;30.02;;;18.90;99.90;;;;;;5019267;28;20657;-76
2022/05/04 09:26:40;;;;;;;33.85;31.25;;;18.90;99.90;;;;;;5004218;28;20466;-76
2022/05/04 09:29:11;;;;;;;34.20;31.40;;;18.90;99.90;;;;;;5027502;28;20064;-76
2022/05/04 09:31:46;;;;;;;32.33;29.73;;;18.60;99.90;;;;;;5010510;28;20488;-76
2022/05/04 09:34:14;;;;;;;33.15;30.85;;;18.70;99.90;;;;;;5009852;28;20454;-75
2022/05/04 09:45:12;;;;;;;32.90;30.27;;;18.90;99.90;;;;;;5027546;28;20052;-75
2022/05/04 09:47:46;;;;;;;33.97;31.15;;;19.00;99.90;;;;;;5017251;28;20156;-75
2022/05/04 09:50:15;;;;;;;34.35;31.83;;;19.10;99.90;;;;;;5007134;28;20235;-75
2022/05/04 09:52:48;;;;;;;33.45;30.90;;;18.80;99.90;;;;;;5007664;28;20045;-74
2022/05/04 09:55:19;;;;;;;33.60;30.70;;;18.80;99.90;;;;;;5025312;28;20084;-75
2022/05/04 09:57:47;;;;;;;32.85;30.23;;;18.70;99.90;;;;;;5007938;28;20184;-75
2022/05/04 10:00:17;;;;;;;32.88;30.25;;;18.70;99.90;;;;;;5024083;28;20049;-75
2022/05/04 10:02:44;;;;;;;33.90;30.75;;;18.30;99.90;;;;;;5007246;28;20049;-74
2022/05/04 10:05:12;;;;;;;32.25;29.75;;;18.00;99.90;;;;;;5006866;28;20492;-74
2022/05/04 10:07:41;;;;;;;34.53;31.75;;;17.90;99.90;;;;;;5007304;28;20053;-74
2022/05/04 10:10:09;;;;;;;36.00;33.13;;;17.80;99.90;;;;;;5006029;28;20041;-75
2022/05/04 10:12:39;;;;;;;34.58;31.85;;;17.60;99.90;;;;;;5025350;28;20049;-75
2022/05/04 10:15:08;;;;;;;33.60;30.77;;;17.70;99.90;;;;;;5029158;28;20306;-76
2022/05/04 10:17:44;;;;;;;33.08;30.33;;;18.10;99.90;;;;;;5014923;28;20107;-76
2022/05/04 10:20:15;;;;;;;34.35;31.67;;;18.50;99.90;;;;;;5005459;28;20049;-76
2022/05/04 10:23:01;;;;;;;34.05;31.38;;;18.60;99.90;;;;;;5027414;28;20060;-76
2022/05/04 10:25:32;;;;;;;32.17;29.80;;;18.60;99.90;;;;;;4991327;28;20125;-76
2022/05/04 10:28:06;;;;;;;36.05;33.22;;;18.60;99.90;;;;;;5001830;28;20346;-77
2022/05/04 10:30:34;;;;;;;35.22;32.53;;;18.60;99.90;;;;;;5005224;28;20053;-76
2022/05/04 10:33:06;;;;;;;36.72;33.72;;;18.60;99.90;;;;;;5024121;28;20053;-76
2022/05/04 10:35:42;;;;;;;34.10;31.52;;;18.80;99.90;;;;;;5023871;28;20056;-76
2022/05/04 10:38:19;;;;;;;34.28;31.48;;;18.40;99.90;;;;;;5005719;28;20508;-76
2022/05/04 10:40:56;;;;;;;35.22;32.38;;;18.00;99.90;;;;;;5011453;28;20331;-76
2022/05/04 10:43:50;;;;;;;35.15;32.33;;;18.00;99.90;;;;;;5031386;28;20050;-76
2022/05/04 10:46:20;;;;;;;35.42;32.38;;;18.10;99.90;;;;;;4982173;28;20052;-76
2022/05/04 10:48:55;;;;;;;36.63;33.45;;;18.10;99.90;;;;;;5017730;28;20169;-77
2022/05/04 10:51:22;;;;;;;;;;;18.20;99.90;;;;;;5004428;28;20519;-76
2022/05/04 10:53:51;;;;;;;35.70;32.72;;;18.40;99.90;;;;;;5023700;28;19956;-76
2022/05/04 10:56:23;;;;;;;32.97;30.38;;;18.80;99.90;;;;;;5005873;28;20045;-77
2022/05/04 10:58:50;;;;;;;33.65;30.92;;;19.30;99.90;;;;;;5006144;28;20108;-77
2022/05/04 11:01:23;;;;;;;34.35;31.63;;;19.40;99.90;;;;;;5004538;28;20136;-76
2022/05/04 11:03:56;;;;;;;34.13;31.17;;;19.50;99.90;;;;;;4992406;28;20145;-77
2022/05/04 11:06:33;;;;;;;34.40;31.35;;;19.20;99.90;;;;;;5008897;28;20096;-77
2022/05/04 11:09:11;;;;;;;35.45;32.38;;;19.00;99.90;;;;;;5003369;28;20077;-77
2022/05/04 11:11:39;;;;;;;35.50;32.55;;;18.80;99.90;;;;;;5013413;28;20088;-76
2022/05/04 11:14:08;;;;;;;36.95;33.95;;;18.70;99.90;;;;;;4997306;28;20095;-77
2022/05/04 11:16:35;;;;;;;39.65;36.55;;;18.60;99.90;;;;;;5008808;28;20045;-76
2022/05/04 11:19:03;;;;;;;40.13;36.92;;;18.30;99.90;;;;;;4996576;28;20061;-76
2022/05/04 11:21:31;;;;;;;40.22;37.05;;;17.60;99.90;;;;;;5016399;28;20053;-76
2022/05/04 11:24:01;;;;;;;39.85;36.38;;;17.40;99.90;;;;;;4987975;28;20569;-76
2022/05/04 11:26:37;;;;;;;38.28;35.17;;;17.40;99.90;;;;;;4988278;28;20100;-76
2022/05/04 11:29:12;;;;;;;38.78;35.78;;;17.80;99.90;;;;;;5004954;28;20045;-76
2022/05/04 11:31:47;;;;;;;38.65;35.65;;;17.70;99.90;;;;;;5002784;28;20050;-79
2022/05/04 11:34:15;;;;;;;;;;;17.90;99.90;;;;;;5003526;28;20375;-77
2022/05/04 11:36:46;;;;;;;39.42;36.08;;;17.90;99.90;;;;;;5003290;28;19953;-77
2022/05/04 11:39:18;;;;;;;39.20;36.20;;;17.90;99.90;;;;;;5014378;28;20053;-77
2022/05/04 11:41:46;;;;;;;37.47;34.85;;;17.90;99.90;;;;;;5014230;28;20136;-76
2022/05/04 11:44:23;;;;;;;38.55;35.47;;;18.00;99.90;;;;;;5031544;28;20049;-77
2022/05/04 11:46:58;;;;;;;37.70;34.75;;;18.10;99.90;;;;;;5012028;28;20064;-77
2022/05/04 11:49:28;;;;;;;40.03;36.67;;;18.20;99.90;;;;;;5003184;28;20042;-77
2022/05/04 11:51:57;;;;;;;38.83;35.97;;;18.30;99.90;;;;;;5000915;28;20284;-77
2022/05/04 11:54:23;;;;;;;38.33;35.05;;;18.00;99.90;;;;;;5004655;28;20072;-77
2022/05/04 11:56:51;;;;;;;38.85;35.55;;;18.20;99.90;;;;;;5003415;28;20549;-76
2022/05/04 11:59:18;;;;;;;39.58;36.35;;;18.40;99.90;;;;;;5004025;28;20080;-77
2022/05/04 12:01:46;;;;;;;37.80;34.53;;;18.50;99.90;;;;;;5001679;28;20052;-77
2022/05/04 12:04:14;;;;;;;39.35;36.45;;;18.70;99.90;;;;;;5021875;28;20496;-77
2022/05/04 12:06:44;;;;;;;39.00;36.00;;;18.80;99.90;;;;;;5021752;28;20050;-77
2022/05/04 12:09:16;;;;;;;39.90;36.65;;;18.50;99.90;;;;;;5019867;28;20354;-77
2022/05/04 12:11:43;;;;;;;38.60;35.70;;;18.60;99.90;;;;;;5012613;28;20111;-77
2022/05/04 12:14:10;;;;;;;38.90;35.90;;;18.80;99.90;;;;;;5032412;28;20115;-77
2022/05/04 12:16:38;;;;;;;42.95;39.42;;;18.60;99.90;;;;;;5008728;28;20095;-77
2022/05/04 12:19:05;;;;;;;40.83;37.55;;;18.20;99.90;;;;;;4987233;28;20048;-77
2022/05/04 12:21:31;;;;;;;41.53;37.95;;;18.20;99.90;;;;;;4982984;28;20131;-77
2022/05/04 12:24:00;;;;;;;40.58;37.53;;;18.20;99.90;;;;;;5008552;28;20057;-77
2022/05/04 12:26:27;;;;;;;38.78;35.78;;;18.80;99.90;;;;;;5022076;28;20049;-79
2022/05/04 12:34:31;;;;;;;41.78;38.63;;;19.50;99.90;;;;;;5017407;28;20037;-77
2022/05/04 12:36:59;;;;;;;43.08;39.65;;;19.00;99.90;;;;;;5001081;28;20049;-77
2022/05/04 12:39:26;;;;;;;42.25;39.10;;;19.20;99.90;;;;;;5008006;28;20126;-76
2022/05/04 12:41:58;;;;;;;45.30;42.10;;;19.60;99.90;;;;;;4997142;28;20048;-78
2022/05/04 12:44:25;;;;;;;43.08;39.88;;;19.70;99.90;;;;;;5022386;28;20135;-77
2022/05/04 12:46:57;;;;;;;44.58;41.10;;;19.80;99.90;;;;;;4995578;28;20057;-77
2022/05/04 12:49:24;;;;;;;41.67;38.45;;;19.80;99.90;;;;;;5005673;28;20045;-77
2022/05/04 12:51:52;;;;;;;39.80;36.30;;;19.70;99.90;;;;;;5004200;28;20049;-77
2022/05/04 12:54:19;;;;;;;41.25;38.00;;;20.20;99.90;;;;;;5021899;28;20084;-77
2022/05/04 12:56:47;;;;;;;41.17;37.85;;;20.20;99.90;;;;;;5001732;28;20293;-77
2022/05/04 12:59:15;;;;;;;40.38;37.28;;;20.10;99.90;;;;;;5024446;28;20474;-78
2022/05/04 13:01:43;;;;;;;41.15;37.75;;;20.30;99.90;;;;;;4989378;28;20388;-77
2022/05/04 13:04:12;;;;;;;41.97;38.60;;;20.40;99.90;;;;;;5003690;28;20077;-77
2022/05/04 13:06:39;;;;;;;41.08;37.67;;;20.10;99.90;;;;;;5003878;28;20095;-76
2022/05/04 13:09:06;;;;;;;41.05;38.03;;;20.30;99.90;;;;;;5019438;28;20079;-77
2022/05/04 13:11:35;;;;;;;42.10;38.88;;;20.40;99.90;;;;;;4994429;28;20069;-76
2022/05/04 13:14:02;;;;;;;40.47;37.42;;;20.30;99.90;;;;;;5011874;28;20147;-77
2022/05/04 13:16:31;;;;;;;39.65;36.45;;;20.10;99.90;;;;;;5020743;28;20306;-76